createdAt,value
2018-06-23T00:00:23.543Z,0.00
2018-06-23T00:01:23.551Z,0.00
2018-06-23T00:02:23.569Z,0.00
2018-06-23T00:03:23.597Z,0.00
2018-06-23T00:04:23.605Z,0.00
2018-06-23T00:05:23.630Z,0.00
2018-06-23T00:06:23.650Z,0.00
2018-06-23T00:07:23.674Z,0.00
2018-06-23T00:08:23.689Z,0.00
2018-06-23T00:09:23.714Z,0.00
2018-06-23T00:10:23.725Z,0.00
2018-06-23T00:11:23.752Z,0.00
2018-06-23T00:12:23.766Z,0.00
2018-06-23T00:13:23.791Z,0.00
2018-06-23T00:14:23.802Z,0.00
2018-06-23T00:15:23.828Z,0.00
2018-06-23T00:16:23.842Z,0.00
2018-06-23T00:17:23.868Z,0.00
2018-06-23T00:18:23.889Z,0.00
2018-06-23T00:19:23.914Z,0.00
2018-06-23T00:20:23.921Z,0.00
2018-06-23T00:21:23.948Z,0.00
2018-06-23T00:22:23.965Z,0.00
2018-06-23T00:23:23.991Z,0.00
2018-06-23T00:24:24.002Z,0.00
2018-06-23T00:25:24.028Z,0.00
2018-06-23T00:26:24.040Z,0.00
2018-06-23T00:27:24.052Z,0.00
2018-06-23T00:28:24.083Z,0.00
2018-06-23T00:29:24.098Z,0.00
2018-06-23T00:30:24.127Z,0.00
2018-06-23T00:31:24.144Z,0.00
2018-06-23T00:32:24.156Z,0.00
2018-06-23T00:33:24.171Z,0.00
2018-06-23T00:34:24.200Z,0.00
2018-06-23T00:35:24.213Z,0.00
2018-06-23T00:36:24.235Z,0.00
2018-06-23T00:37:24.249Z,0.00
2018-06-23T00:38:24.278Z,0.00
2018-06-23T00:39:24.292Z,0.00
2018-06-23T00:40:24.321Z,0.00
2018-06-23T00:41:24.334Z,0.00
2018-06-23T00:42:24.355Z,0.00
2018-06-23T00:43:24.368Z,0.00
2018-06-23T00:44:24.387Z,0.00
2018-06-23T00:45:24.412Z,0.00
2018-06-23T00:46:24.422Z,0.00
2018-06-23T00:47:24.446Z,0.00
2018-06-23T00:48:24.462Z,0.00
2018-06-23T00:49:24.495Z,0.00
2018-06-23T00:50:24.504Z,0.00
2018-06-23T00:51:24.533Z,0.00
2018-06-23T00:52:24.547Z,0.00
2018-06-23T00:53:24.572Z,0.00
2018-06-23T00:54:24.580Z,0.00
2018-06-23T00:55:24.594Z,0.00
2018-06-23T00:56:24.617Z,0.00
2018-06-23T00:57:24.631Z,0.00
2018-06-23T00:58:24.660Z,0.00
2018-06-23T00:59:24.674Z,0.00
2018-06-23T01:00:24.698Z,0.00
2018-06-23T01:01:24.711Z,0.00
2018-06-23T01:02:24.741Z,0.00
2018-06-23T01:03:24.756Z,0.00
2018-06-23T01:04:24.781Z,0.00
2018-06-23T01:05:24.791Z,0.00
2018-06-23T01:06:24.813Z,0.00
2018-06-23T01:07:24.829Z,0.00
2018-06-23T01:08:24.858Z,0.00
2018-06-23T01:09:24.871Z,0.00
2018-06-23T01:10:24.881Z,0.00
2018-06-23T01:11:24.907Z,0.00
2018-06-23T01:12:24.923Z,0.00
2018-06-23T01:13:24.948Z,0.00
2018-06-23T01:14:24.969Z,0.00
2018-06-23T01:15:24.993Z,0.00
2018-06-23T01:16:24.999Z,0.00
2018-06-23T01:17:25.024Z,0.00
2018-06-23T01:18:25.043Z,0.00
2018-06-23T01:19:25.072Z,0.00
2018-06-23T01:20:25.085Z,0.00
2018-06-23T01:21:25.109Z,0.00
2018-06-23T01:22:25.120Z,0.00
2018-06-23T01:23:25.132Z,0.00
2018-06-23T01:24:25.162Z,0.00
2018-06-23T01:25:25.176Z,0.00
2018-06-23T01:26:25.198Z,0.00
2018-06-23T01:27:25.211Z,0.00
2018-06-23T01:28:25.235Z,0.00
2018-06-23T01:29:25.249Z,0.00
2018-06-23T01:30:25.279Z,0.00
2018-06-23T01:31:25.292Z,0.00
2018-06-23T01:32:25.315Z,0.00
2018-06-23T01:33:25.331Z,0.00
2018-06-23T01:34:25.348Z,0.00
2018-06-23T01:35:25.373Z,0.00
2018-06-23T01:36:25.386Z,0.00
2018-06-23T01:37:25.411Z,0.00
2018-06-23T01:38:25.419Z,0.00
2018-06-23T01:39:25.447Z,0.00
2018-06-23T01:40:25.464Z,0.00
2018-06-23T01:41:25.490Z,0.00
2018-06-23T01:42:25.498Z,0.00
2018-06-23T01:43:25.524Z,0.00
2018-06-23T01:44:25.542Z,0.00
2018-06-23T01:45:25.555Z,0.00
2018-06-23T01:46:25.584Z,0.00
2018-06-23T01:47:25.598Z,0.00
2018-06-23T01:48:25.617Z,0.00
2018-06-23T01:49:25.643Z,0.00
2018-06-23T01:50:25.661Z,0.00
2018-06-23T01:51:25.674Z,0.00
2018-06-23T01:52:25.702Z,0.00
2018-06-23T01:53:25.716Z,0.00
2018-06-23T01:54:25.739Z,0.00
2018-06-23T01:55:25.752Z,0.00
2018-06-23T01:56:25.779Z,0.00
2018-06-23T01:57:25.795Z,0.00
2018-06-23T01:58:25.804Z,0.00
2018-06-23T01:59:25.828Z,0.00
2018-06-23T02:00:25.843Z,0.00
2018-06-23T02:01:25.869Z,0.00
2018-06-23T02:02:25.889Z,0.00
2018-06-23T02:03:25.982Z,0.00
2018-06-23T02:04:25.921Z,0.00
2018-06-23T02:05:25.946Z,0.00
2018-06-23T02:06:25.965Z,0.00
2018-06-23T02:07:25.978Z,0.00
2018-06-23T02:08:26.005Z,0.00
2018-06-23T02:09:26.019Z,0.00
2018-06-23T02:10:26.042Z,0.00
2018-06-23T02:11:26.054Z,0.00
2018-06-23T02:12:26.083Z,0.00
2018-06-23T02:13:26.099Z,0.00
2018-06-23T02:14:26.122Z,0.00
2018-06-23T02:15:26.133Z,0.00
2018-06-23T02:16:26.156Z,0.00
2018-06-23T02:17:26.172Z,0.00
2018-06-23T02:18:26.202Z,0.00
2018-06-23T02:19:26.213Z,0.00
2018-06-23T02:20:26.226Z,0.00
2018-06-23T02:21:26.251Z,0.00
2018-06-23T02:22:26.268Z,0.00
2018-06-23T02:23:26.295Z,0.00
2018-06-23T02:24:26.306Z,0.00
2018-06-23T02:25:26.334Z,0.00
2018-06-23T02:26:26.341Z,0.00
2018-06-23T02:27:26.367Z,0.00
2018-06-23T02:28:26.385Z,0.00
2018-06-23T02:29:26.399Z,0.00
2018-06-23T02:30:26.421Z,0.00
2018-06-23T02:31:26.448Z,0.00
2018-06-23T02:32:26.462Z,0.00
2018-06-23T02:33:26.476Z,5.63
2018-06-23T02:34:26.505Z,5.63
2018-06-23T02:35:26.520Z,5.63
2018-06-23T02:36:26.539Z,5.63
2018-06-23T02:37:26.553Z,5.63
2018-06-23T02:38:26.582Z,5.63
2018-06-23T02:39:26.598Z,5.63
2018-06-23T02:40:26.612Z,5.63
2018-06-23T02:41:26.637Z,5.63
2018-06-23T02:42:26.653Z,5.63
2018-06-23T02:43:26.674Z,5.63
2018-06-23T02:44:26.689Z,5.63
2018-06-23T02:45:26.716Z,11.25
2018-06-23T02:46:26.726Z,11.25
2018-06-23T02:47:26.752Z,11.25
2018-06-23T02:48:26.762Z,11.25
2018-06-23T02:49:26.788Z,11.25
2018-06-23T02:50:26.811Z,16.88
2018-06-23T02:51:26.833Z,16.88
2018-06-23T02:52:26.844Z,16.88
2018-06-23T02:53:26.859Z,16.88
2018-06-23T02:54:26.890Z,16.88
2018-06-23T02:55:26.900Z,22.50
2018-06-23T02:56:26.925Z,22.50
2018-06-23T02:57:26.939Z,22.50
2018-06-23T02:58:26.963Z,22.50
2018-06-23T02:59:26.973Z,28.13
2018-06-23T03:00:26.988Z,28.13
2018-06-23T03:01:27.014Z,28.13
2018-06-23T03:02:27.031Z,33.75
2018-06-23T03:03:27.057Z,33.75
2018-06-23T03:04:27.073Z,33.75
2018-06-23T03:05:27.098Z,33.75
2018-06-23T03:06:27.121Z,39.38
2018-06-23T03:07:27.122Z,39.38
2018-06-23T03:08:27.150Z,39.38
2018-06-23T03:09:27.166Z,39.38
2018-06-23T03:10:27.185Z,45.00
2018-06-23T03:11:27.198Z,45.00
2018-06-23T03:12:27.231Z,45.00
2018-06-23T03:13:27.254Z,45.00
2018-06-23T03:14:27.269Z,50.63
2018-06-23T03:15:27.284Z,50.63
2018-06-23T03:16:27.295Z,50.63
2018-06-23T03:17:27.318Z,50.63
2018-06-23T03:18:27.337Z,61.88
2018-06-23T03:19:27.362Z,67.50
2018-06-23T03:20:27.373Z,61.88
2018-06-23T03:21:27.389Z,56.25
2018-06-23T03:22:27.409Z,67.50
2018-06-23T03:23:27.425Z,73.13
2018-06-23T03:24:27.455Z,73.13
2018-06-23T03:25:27.470Z,78.75
2018-06-23T03:26:27.490Z,84.38
2018-06-23T03:27:27.503Z,78.75
2018-06-23T03:28:27.516Z,78.75
2018-06-23T03:29:27.541Z,84.38
2018-06-23T03:30:27.559Z,95.63
2018-06-23T03:31:27.585Z,101.25
2018-06-23T03:32:27.595Z,84.38
2018-06-23T03:33:27.623Z,67.50
2018-06-23T03:34:27.637Z,67.50
2018-06-23T03:35:27.651Z,73.13
2018-06-23T03:36:27.679Z,84.38
2018-06-23T03:37:27.692Z,90.00
2018-06-23T03:38:27.714Z,78.75
2018-06-23T03:39:27.730Z,90.00
2018-06-23T03:40:27.756Z,84.38
2018-06-23T03:41:27.769Z,61.88
2018-06-23T03:42:27.790Z,67.50
2018-06-23T03:43:27.804Z,90.00
2018-06-23T03:44:27.820Z,106.88
2018-06-23T03:45:27.845Z,118.13
2018-06-23T03:46:27.866Z,118.13
2018-06-23T03:47:27.890Z,118.13
2018-06-23T03:48:27.898Z,112.50
2018-06-23T03:49:27.924Z,140.63
2018-06-23T03:50:27.947Z,135.00
2018-06-23T03:51:27.959Z,106.88
2018-06-23T03:52:27.980Z,123.75
2018-06-23T03:53:27.993Z,191.25
2018-06-23T03:54:28.015Z,191.25
2018-06-23T03:55:28.029Z,168.75
2018-06-23T03:56:28.060Z,157.50
2018-06-23T03:57:28.074Z,146.25
2018-06-23T03:58:28.097Z,123.75
2018-06-23T03:59:28.110Z,135.00
2018-06-23T04:00:28.122Z,135.00
2018-06-23T04:01:28.149Z,135.00
2018-06-23T04:02:28.178Z,163.13
2018-06-23T04:03:28.191Z,135.00
2018-06-23T04:04:28.202Z,140.63
2018-06-23T04:05:28.232Z,135.00
2018-06-23T04:06:28.245Z,135.00
2018-06-23T04:07:28.271Z,151.88
2018-06-23T04:08:28.283Z,146.25
2018-06-23T04:09:28.309Z,118.13
2018-06-23T04:10:28.317Z,118.13
2018-06-23T04:11:28.338Z,135.00
2018-06-23T04:12:28.365Z,168.75
2018-06-23T04:13:28.377Z,168.75
2018-06-23T04:14:28.399Z,163.13
2018-06-23T04:15:28.412Z,174.38
2018-06-23T04:16:28.437Z,146.25
2018-06-23T04:17:28.450Z,146.25
2018-06-23T04:18:28.479Z,185.63
2018-06-23T04:19:28.495Z,163.13
2018-06-23T04:20:28.515Z,146.25
2018-06-23T04:21:28.528Z,174.38
2018-06-23T04:22:28.558Z,253.13
2018-06-23T04:23:28.574Z,191.25
2018-06-23T04:24:28.600Z,230.63
2018-06-23T04:25:28.617Z,174.38
2018-06-23T04:26:28.635Z,163.13
2018-06-23T04:27:28.650Z,163.13
2018-06-23T04:28:28.665Z,213.75
2018-06-23T04:29:28.691Z,236.25
2018-06-23T04:30:28.700Z,213.75
2018-06-23T04:31:28.725Z,275.63
2018-06-23T04:32:28.743Z,264.38
2018-06-23T04:33:28.767Z,191.25
2018-06-23T04:34:28.793Z,219.38
2018-06-23T04:35:28.811Z,303.75
2018-06-23T04:36:28.819Z,286.88
2018-06-23T04:37:28.849Z,393.75
2018-06-23T04:38:28.864Z,337.50
2018-06-23T04:39:28.890Z,275.63
2018-06-23T04:40:28.900Z,225.00
2018-06-23T04:41:28.927Z,241.88
2018-06-23T04:42:28.941Z,281.25
2018-06-23T04:43:28.962Z,270.00
2018-06-23T04:44:28.983Z,208.13
2018-06-23T04:45:29.008Z,253.13
2018-06-23T04:46:29.018Z,281.25
2018-06-23T04:47:29.043Z,292.50
2018-06-23T04:48:29.055Z,360.00
2018-06-23T04:49:29.092Z,298.13
2018-06-23T04:50:29.099Z,337.50
2018-06-23T04:51:29.124Z,331.88
2018-06-23T04:52:29.133Z,348.75
2018-06-23T04:53:29.163Z,382.50
2018-06-23T04:54:29.178Z,388.13
2018-06-23T04:55:29.208Z,320.63
2018-06-23T04:56:29.218Z,292.50
2018-06-23T04:57:29.244Z,292.50
2018-06-23T04:58:29.258Z,292.50
2018-06-23T04:59:29.342Z,241.88
2018-06-23T05:00:29.327Z,230.63
2018-06-23T05:01:29.321Z,253.13
2018-06-23T05:02:29.332Z,270.00
2018-06-23T05:03:29.357Z,382.50
2018-06-23T05:04:29.378Z,354.38
2018-06-23T05:05:29.401Z,292.50
2018-06-23T05:06:29.428Z,348.75
2018-06-23T05:07:29.443Z,337.50
2018-06-23T05:08:29.455Z,315.00
2018-06-23T05:09:29.481Z,421.88
2018-06-23T05:10:29.503Z,320.63
2018-06-23T05:11:29.516Z,326.25
2018-06-23T05:12:29.529Z,326.25
2018-06-23T05:13:29.553Z,405.00
2018-06-23T05:14:29.583Z,736.88
2018-06-23T05:15:29.599Z,720.00
2018-06-23T05:16:29.622Z,500.63
2018-06-23T05:17:29.635Z,489.38
2018-06-23T05:18:29.665Z,466.88
2018-06-23T05:19:29.678Z,365.63
2018-06-23T05:20:29.704Z,388.13
2018-06-23T05:21:29.716Z,416.25
2018-06-23T05:22:29.738Z,427.50
2018-06-23T05:23:29.751Z,517.50
2018-06-23T05:24:29.781Z,489.38
2018-06-23T05:25:29.795Z,416.25
2018-06-23T05:26:29.816Z,483.75
2018-06-23T05:27:29.833Z,1147.50
2018-06-23T05:28:29.858Z,483.75
2018-06-23T05:29:29.884Z,478.13
2018-06-23T05:30:29.901Z,388.13
2018-06-23T05:31:29.928Z,466.88
2018-06-23T05:32:29.936Z,585.00
2018-06-23T05:33:29.961Z,455.63
2018-06-23T05:34:29.979Z,511.88
2018-06-23T05:35:30.007Z,427.50
2018-06-23T05:36:30.033Z,545.63
2018-06-23T05:37:30.046Z,641.25
2018-06-23T05:38:30.068Z,663.75
2018-06-23T05:39:30.081Z,405.00
2018-06-23T05:40:30.110Z,573.75
2018-06-23T05:41:30.129Z,646.88
2018-06-23T05:42:30.146Z,669.38
2018-06-23T05:43:30.162Z,708.75
2018-06-23T05:44:30.184Z,725.63
2018-06-23T05:45:30.210Z,618.75
2018-06-23T05:46:30.229Z,714.38
2018-06-23T05:47:30.254Z,838.13
2018-06-23T05:48:30.278Z,635.63
2018-06-23T05:49:30.293Z,714.38
2018-06-23T05:50:30.322Z,736.88
2018-06-23T05:51:30.335Z,551.25
2018-06-23T05:52:30.359Z,410.63
2018-06-23T05:53:30.374Z,523.13
2018-06-23T05:54:30.393Z,607.50
2018-06-23T05:55:30.421Z,590.63
2018-06-23T05:56:30.438Z,551.25
2018-06-23T05:57:30.463Z,388.13
2018-06-23T05:58:30.486Z,410.63
2018-06-23T05:59:30.499Z,573.75
2018-06-23T06:00:30.528Z,506.25
2018-06-23T06:01:30.540Z,371.25
2018-06-23T06:02:30.570Z,388.13
2018-06-23T06:03:30.596Z,320.63
2018-06-23T06:04:30.616Z,258.75
2018-06-23T06:05:30.629Z,196.88
2018-06-23T06:06:30.648Z,241.88
2018-06-23T06:07:30.674Z,371.25
2018-06-23T06:08:30.702Z,630.00
2018-06-23T06:09:30.715Z,753.75
2018-06-23T06:10:30.738Z,753.75
2018-06-23T06:11:30.751Z,815.63
2018-06-23T06:12:30.779Z,748.13
2018-06-23T06:13:30.804Z,832.50
2018-06-23T06:14:30.817Z,922.50
2018-06-23T06:15:30.843Z,793.13
2018-06-23T06:16:30.867Z,675.00
2018-06-23T06:17:30.886Z,624.38
2018-06-23T06:18:30.911Z,585.00
2018-06-23T06:19:30.927Z,540.00
2018-06-23T06:20:30.944Z,517.50
2018-06-23T06:21:30.970Z,511.88
2018-06-23T06:22:30.991Z,506.25
2018-06-23T06:23:31.014Z,534.38
2018-06-23T06:24:31.030Z,551.25
2018-06-23T06:25:31.056Z,551.25
2018-06-23T06:26:31.077Z,511.88
2018-06-23T06:27:31.091Z,472.50
2018-06-23T06:28:31.121Z,410.63
2018-06-23T06:29:31.158Z,393.75
2018-06-23T06:30:31.156Z,416.25
2018-06-23T06:31:31.196Z,421.88
2018-06-23T06:32:31.207Z,405.00
2018-06-23T06:33:31.220Z,382.50
2018-06-23T06:34:31.250Z,410.63
2018-06-23T06:35:31.279Z,410.63
2018-06-23T06:36:31.287Z,376.88
2018-06-23T06:37:31.313Z,376.88
2018-06-23T06:38:31.331Z,388.13
2018-06-23T06:39:31.357Z,360.00
2018-06-23T06:40:31.381Z,298.13
2018-06-23T06:41:31.394Z,253.13
2018-06-23T06:42:31.415Z,376.88
2018-06-23T06:43:31.446Z,421.88
2018-06-23T06:44:31.503Z,433.13
2018-06-23T06:45:31.486Z,438.75
2018-06-23T06:46:31.496Z,376.88
2018-06-23T06:47:31.521Z,399.38
2018-06-23T06:48:31.548Z,511.88
2018-06-23T06:49:31.563Z,438.75
2018-06-23T06:50:31.592Z,337.50
2018-06-23T06:51:31.620Z,320.63
2018-06-23T06:52:31.641Z,354.38
2018-06-23T06:53:31.654Z,382.50
2018-06-23T06:54:31.670Z,393.75
2018-06-23T06:55:31.702Z,326.25
2018-06-23T06:56:31.724Z,331.88
2018-06-23T06:57:31.736Z,410.63
2018-06-23T06:58:31.758Z,343.13
2018-06-23T06:59:31.772Z,343.13
2018-06-23T07:00:31.803Z,281.25
2018-06-23T07:01:31.830Z,275.63
2018-06-23T07:02:31.837Z,286.88
2018-06-23T07:03:31.879Z,292.50
2018-06-23T07:04:31.875Z,444.38
2018-06-23T07:05:31.902Z,551.25
2018-06-23T07:06:31.932Z,506.25
2018-06-23T07:07:31.949Z,545.63
2018-06-23T07:08:31.968Z,405.00
2018-06-23T07:09:31.982Z,523.13
2018-06-23T07:10:32.013Z,641.25
2018-06-23T07:11:32.026Z,1006.88
2018-06-23T07:12:32.055Z,978.75
2018-06-23T07:13:32.063Z,905.63
2018-06-23T07:14:32.085Z,1035.00
2018-06-23T07:15:32.138Z,1170.00
2018-06-23T07:16:32.123Z,1260.00
2018-06-23T07:17:32.177Z,1310.63
2018-06-23T07:18:32.168Z,1153.13
2018-06-23T07:19:32.194Z,995.63
2018-06-23T07:20:32.221Z,1068.75
2018-06-23T07:21:32.235Z,1119.38
2018-06-23T07:22:32.256Z,1186.88
2018-06-23T07:23:32.284Z,1254.38
2018-06-23T07:24:32.299Z,1175.63
2018-06-23T07:25:32.312Z,1029.38
2018-06-23T07:26:32.333Z,1029.38
2018-06-23T07:27:32.359Z,922.50
2018-06-23T07:28:32.376Z,748.13
2018-06-23T07:29:32.401Z,748.13
2018-06-23T07:30:32.421Z,765.00
2018-06-23T07:31:32.445Z,680.63
2018-06-23T07:32:32.467Z,635.63
2018-06-23T07:33:32.484Z,652.50
2018-06-23T07:34:32.562Z,528.75
2018-06-23T07:35:32.540Z,545.63
2018-06-23T07:36:32.556Z,675.00
2018-06-23T07:37:32.574Z,781.88
2018-06-23T07:38:32.595Z,1738.13
2018-06-23T07:39:32.613Z,2767.50
2018-06-23T07:40:32.664Z,1890.00
2018-06-23T07:41:32.667Z,1957.50
2018-06-23T07:42:32.678Z,1254.38
2018-06-23T07:43:32.704Z,1378.13
2018-06-23T07:44:32.726Z,1344.38
2018-06-23T07:45:32.739Z,1473.75
2018-06-23T07:46:32.824Z,1400.63
2018-06-23T07:47:32.796Z,1445.63
2018-06-23T07:48:32.805Z,1833.75
2018-06-23T07:49:32.834Z,1833.75
2018-06-23T07:50:32.861Z,1771.88
2018-06-23T07:51:32.887Z,1608.75
2018-06-23T07:52:32.904Z,1558.13
2018-06-23T07:53:32.932Z,1473.75
2018-06-23T07:54:32.950Z,1372.50
2018-06-23T07:55:32.977Z,1316.25
2018-06-23T07:56:33.005Z,1597.50
2018-06-23T07:57:33.018Z,1473.75
2018-06-23T07:58:33.040Z,1203.75
2018-06-23T07:59:33.066Z,1243.13
2018-06-23T08:00:33.093Z,1456.88
2018-06-23T08:01:33.131Z,1513.13
2018-06-23T08:02:33.138Z,1440.00
2018-06-23T08:03:33.163Z,1271.25
2018-06-23T08:04:33.184Z,1220.63
2018-06-23T08:05:33.212Z,720.00
2018-06-23T08:06:33.241Z,894.38
2018-06-23T08:07:33.256Z,838.13
2018-06-23T08:08:33.279Z,1192.50
2018-06-23T08:09:33.316Z,900.00
2018-06-23T08:10:33.326Z,849.38
2018-06-23T08:11:33.352Z,781.88
2018-06-23T08:12:33.384Z,787.50
2018-06-23T08:13:33.399Z,1181.25
2018-06-23T08:14:33.423Z,1361.25
2018-06-23T08:15:33.450Z,1231.88
2018-06-23T08:16:33.471Z,1181.25
2018-06-23T08:17:33.497Z,843.75
2018-06-23T08:18:33.573Z,776.25
2018-06-23T08:19:33.539Z,978.75
2018-06-23T08:20:33.563Z,888.75
2018-06-23T08:21:33.590Z,675.00
2018-06-23T08:22:33.619Z,888.75
2018-06-23T08:23:33.633Z,1085.63
2018-06-23T08:24:33.668Z,1130.63
2018-06-23T08:25:33.684Z,793.13
2018-06-23T08:26:33.781Z,888.75
2018-06-23T08:27:33.719Z,736.88
2018-06-23T08:28:33.750Z,680.63
2018-06-23T08:29:33.776Z,691.88
2018-06-23T08:30:33.799Z,528.75
2018-06-23T08:31:33.824Z,523.13
2018-06-23T08:32:33.839Z,573.75
2018-06-23T08:33:33.862Z,562.50
2018-06-23T08:34:33.893Z,663.75
2018-06-23T08:35:33.917Z,691.88
2018-06-23T08:36:33.929Z,1231.88
2018-06-23T08:37:33.953Z,1935.00
2018-06-23T08:38:33.985Z,894.38
2018-06-23T08:39:34.011Z,675.00
2018-06-23T08:40:34.037Z,697.50
2018-06-23T08:41:34.051Z,1383.75
2018-06-23T08:42:34.078Z,1040.63
2018-06-23T08:43:34.107Z,697.50
2018-06-23T08:44:34.127Z,1321.88
2018-06-23T08:45:34.141Z,1428.75
2018-06-23T08:46:34.162Z,1541.25
2018-06-23T08:47:34.188Z,967.50
2018-06-23T08:48:34.228Z,1507.50
2018-06-23T08:49:34.230Z,1395.00
2018-06-23T08:50:34.260Z,1968.75
2018-06-23T08:51:34.285Z,2812.50
2018-06-23T08:52:34.308Z,1293.75
2018-06-23T08:53:34.333Z,1726.88
2018-06-23T08:54:34.354Z,2255.63
2018-06-23T08:55:34.376Z,1271.25
2018-06-23T08:56:34.400Z,1608.75
2018-06-23T08:57:34.439Z,1327.50
2018-06-23T08:58:34.448Z,984.38
2018-06-23T08:59:34.474Z,776.25
2018-06-23T09:00:34.506Z,613.13
2018-06-23T09:01:34.533Z,1035.00
2018-06-23T09:02:34.543Z,1035.00
2018-06-23T09:03:34.573Z,1035.00
2018-06-23T09:04:34.592Z,1209.38
2018-06-23T09:05:34.618Z,1400.63
2018-06-23T09:06:34.649Z,1130.63
2018-06-23T09:07:34.673Z,1569.38
2018-06-23T09:08:34.695Z,1816.88
2018-06-23T09:09:34.783Z,1985.63
2018-06-23T09:10:34.739Z,1704.38
2018-06-23T09:11:34.765Z,1636.88
2018-06-23T09:12:34.793Z,1648.13
2018-06-23T09:13:34.866Z,1102.50
2018-06-23T09:14:34.840Z,905.63
2018-06-23T09:15:34.867Z,1299.38
2018-06-23T09:16:34.895Z,1423.13
2018-06-23T09:17:34.921Z,1361.25
2018-06-23T09:18:34.942Z,1192.50
2018-06-23T09:19:34.987Z,866.25
2018-06-23T09:20:34.997Z,753.75
2018-06-23T09:21:35.023Z,759.38
2018-06-23T09:22:35.055Z,849.38
2018-06-23T09:23:35.069Z,888.75
2018-06-23T09:24:35.088Z,787.50
2018-06-23T09:25:35.176Z,618.75
2018-06-23T09:26:35.147Z,562.50
2018-06-23T09:27:35.170Z,748.13
2018-06-23T09:28:35.197Z,945.00
2018-06-23T09:29:35.222Z,1113.75
2018-06-23T09:30:35.245Z,1130.63
2018-06-23T09:31:35.270Z,1192.50
2018-06-23T09:32:35.286Z,1192.50
2018-06-23T09:33:35.313Z,1220.63
2018-06-23T09:34:35.420Z,1175.63
2018-06-23T09:35:35.360Z,1102.50
2018-06-23T09:36:35.387Z,1096.88
2018-06-23T09:37:35.413Z,1035.00
2018-06-23T09:38:35.443Z,860.63
2018-06-23T09:39:35.469Z,759.38
2018-06-23T09:40:35.481Z,883.13
2018-06-23T09:41:35.504Z,635.63
2018-06-23T09:42:35.539Z,551.25
2018-06-23T09:43:35.561Z,416.25
2018-06-23T09:44:35.586Z,601.88
2018-06-23T09:45:35.611Z,1029.38
2018-06-23T09:46:35.633Z,1282.50
2018-06-23T09:47:35.659Z,1350.00
2018-06-23T09:48:35.678Z,1327.50
2018-06-23T09:49:35.719Z,1288.13
2018-06-23T09:50:35.725Z,1074.38
2018-06-23T09:51:35.753Z,843.75
2018-06-23T09:52:35.776Z,838.13
2018-06-23T09:53:35.806Z,849.38
2018-06-23T09:54:35.832Z,765.00
2018-06-23T09:55:35.846Z,781.88
2018-06-23T09:56:35.869Z,1108.13
2018-06-23T09:57:35.894Z,1035.00
2018-06-23T09:58:35.924Z,877.50
2018-06-23T09:59:35.950Z,928.13
2018-06-23T10:00:35.978Z,703.13
2018-06-23T10:01:36.005Z,815.63
2018-06-23T10:02:36.025Z,855.00
2018-06-23T10:03:36.039Z,770.63
2018-06-23T10:04:36.066Z,1355.63
2018-06-23T10:05:36.092Z,1625.63
2018-06-23T10:06:36.114Z,6210.00
2018-06-23T10:07:36.144Z,1912.50
2018-06-23T10:08:36.234Z,1563.75
2018-06-23T10:09:36.194Z,1260.00
2018-06-23T10:10:36.224Z,945.00
2018-06-23T10:11:36.241Z,804.38
2018-06-23T10:12:36.260Z,725.63
2018-06-23T10:13:36.287Z,978.75
2018-06-23T10:14:36.316Z,911.25
2018-06-23T10:15:36.344Z,1732.50
2018-06-23T10:16:36.367Z,4398.75
2018-06-23T10:17:36.392Z,1237.50
2018-06-23T10:18:36.414Z,1890.00
2018-06-23T10:19:36.441Z,1828.13
2018-06-23T10:20:36.475Z,4629.38
2018-06-23T10:21:36.667Z,3026.25
2018-06-23T10:22:36.520Z,1788.75
2018-06-23T10:23:36.546Z,5000.63
2018-06-23T10:24:36.579Z,4213.13
2018-06-23T10:25:36.596Z,5416.88
2018-06-23T10:26:36.639Z,3262.50
2018-06-23T10:27:36.665Z,3678.75
2018-06-23T10:28:36.687Z,1670.63
2018-06-23T10:29:36.713Z,1254.38
2018-06-23T10:30:36.757Z,1080.00
2018-06-23T10:31:36.782Z,714.38
2018-06-23T10:32:36.820Z,556.88
2018-06-23T10:33:36.834Z,793.13
2018-06-23T10:34:36.866Z,787.50
2018-06-23T10:35:36.895Z,675.00
2018-06-23T10:36:36.924Z,500.63
2018-06-23T10:37:36.964Z,545.63
2018-06-23T10:38:36.977Z,753.75
2018-06-23T10:39:37.017Z,877.50
2018-06-23T10:40:37.035Z,1040.63
2018-06-23T10:41:37.061Z,1226.25
2018-06-23T10:42:37.091Z,1254.38
2018-06-23T10:43:37.118Z,1372.50
2018-06-23T10:44:37.151Z,1631.25
2018-06-23T10:45:37.165Z,1963.13
2018-06-23T10:46:37.207Z,6451.88
2018-06-23T10:47:37.233Z,6412.50
2018-06-23T10:48:37.261Z,1462.50
2018-06-23T10:49:37.287Z,1237.50
2018-06-23T10:50:37.309Z,1586.25
2018-06-23T10:51:37.352Z,1569.38
2018-06-23T10:52:37.380Z,6198.75
2018-06-23T10:53:37.402Z,4477.50
2018-06-23T10:54:37.424Z,3251.25
2018-06-23T10:55:37.451Z,4905.00
2018-06-23T10:56:37.490Z,1462.50
2018-06-23T10:57:37.517Z,1524.38
2018-06-23T10:58:37.546Z,1451.25
2018-06-23T10:59:37.574Z,1327.50
2018-06-23T11:00:37.608Z,4505.63
2018-06-23T11:01:37.633Z,5934.38
2018-06-23T11:02:37.662Z,4179.38
2018-06-23T11:03:37.700Z,5906.25
2018-06-23T11:04:37.771Z,5540.63
2018-06-23T11:05:37.752Z,5596.88
2018-06-23T11:06:37.790Z,5405.63
2018-06-23T11:07:37.813Z,5405.63
2018-06-23T11:08:37.855Z,5670.00
2018-06-23T11:09:37.882Z,5883.75
2018-06-23T11:10:37.916Z,1372.50
2018-06-23T11:11:37.956Z,1608.75
2018-06-23T11:12:37.983Z,5962.50
2018-06-23T11:13:38.017Z,3926.25
2018-06-23T11:14:38.047Z,1659.38
2018-06-23T11:15:38.085Z,1608.75
2018-06-23T11:16:38.121Z,1248.75
2018-06-23T11:17:38.147Z,1237.50
2018-06-23T11:18:38.188Z,1276.88
2018-06-23T11:19:38.227Z,1355.63
2018-06-23T11:20:38.258Z,1485.00
2018-06-23T11:21:38.294Z,1501.88
2018-06-23T11:22:38.315Z,1580.63
2018-06-23T11:23:38.355Z,1586.25
2018-06-23T11:24:38.439Z,1563.75
2018-06-23T11:25:38.420Z,1524.38
2018-06-23T11:26:38.442Z,2041.88
2018-06-23T11:27:38.472Z,2238.75
2018-06-23T11:28:38.508Z,2244.38
2018-06-23T11:29:38.535Z,1850.63
2018-06-23T11:30:38.577Z,5608.13
2018-06-23T11:31:38.603Z,1946.25
2018-06-23T11:32:38.629Z,1192.50
2018-06-23T11:33:38.668Z,1681.88
2018-06-23T11:34:38.690Z,1366.88
2018-06-23T11:35:38.715Z,1344.38
2018-06-23T11:36:38.751Z,1378.13
2018-06-23T11:37:38.778Z,1620.00
2018-06-23T11:38:38.820Z,1856.25
2018-06-23T11:39:38.849Z,1181.25
2018-06-23T11:40:38.871Z,1006.88
2018-06-23T11:41:38.908Z,984.38
2018-06-23T11:42:38.953Z,2025.00
2018-06-23T11:43:38.979Z,1625.63
2018-06-23T11:44:39.003Z,1153.13
2018-06-23T11:45:39.028Z,866.25
2018-06-23T11:46:39.085Z,900.00
2018-06-23T11:47:39.088Z,1051.88
2018-06-23T11:48:39.117Z,1400.63
2018-06-23T11:49:39.158Z,2745.00
2018-06-23T11:50:39.178Z,3256.88
2018-06-23T11:51:39.204Z,1096.88
2018-06-23T11:52:39.238Z,776.25
2018-06-23T11:53:39.270Z,630.00
2018-06-23T11:54:39.301Z,894.38
2018-06-23T11:55:39.340Z,1046.25
2018-06-23T11:56:39.347Z,1023.75
2018-06-23T11:57:39.385Z,1136.25
2018-06-23T11:58:39.415Z,1383.75
2018-06-23T11:59:39.442Z,2047.50
2018-06-23T12:00:39.469Z,1980.00
2018-06-23T12:01:39.507Z,3234.38
2018-06-23T12:02:39.532Z,1856.25
2018-06-23T12:03:39.554Z,1175.63
2018-06-23T12:04:39.585Z,911.25
2018-06-23T12:05:39.610Z,838.13
2018-06-23T12:06:39.646Z,860.63
2018-06-23T12:07:39.673Z,928.13
2018-06-23T12:08:39.696Z,1046.25
2018-06-23T12:09:39.737Z,1338.75
2018-06-23T12:10:39.752Z,1316.25
2018-06-23T12:11:39.778Z,2199.38
2018-06-23T12:12:39.814Z,1248.75
2018-06-23T12:13:39.839Z,2469.38
2018-06-23T12:14:39.870Z,5034.38
2018-06-23T12:15:39.896Z,4573.13
2018-06-23T12:16:39.920Z,2801.25
2018-06-23T12:17:39.946Z,1428.75
2018-06-23T12:18:39.981Z,1237.50
2018-06-23T12:19:40.007Z,1248.75
2018-06-23T12:20:40.036Z,1130.63
2018-06-23T12:21:40.063Z,1091.25
2018-06-23T12:22:40.096Z,1136.25
2018-06-23T12:23:40.122Z,1288.13
2018-06-23T12:24:40.150Z,1546.88
2018-06-23T12:25:40.176Z,1805.63
2018-06-23T12:26:40.219Z,1850.63
2018-06-23T12:27:40.245Z,1760.63
2018-06-23T12:28:40.265Z,2683.13
2018-06-23T12:29:40.291Z,1670.63
2018-06-23T12:30:40.322Z,1569.38
2018-06-23T12:31:40.372Z,1777.50
2018-06-23T12:32:40.387Z,2182.50
2018-06-23T12:33:40.416Z,1906.88